Bridgeport, Nebraska
Current Conditions -  °F | °C
As of 1:53 AM on Wednesday 26 Nov 2014 (Local Time) from KBFF Reporting Station
Overcast Overcast  
Wind Chill: 20°   Ceiling: 8500
Heat Index: 31°   Visibility: 10mi
Dew Point: 25°   Wind: 15mph
Humidity: 79%   Direction: 300°WNW
Pressure: 30.12"   Gusts: NA
Location:  41.67°N, 103.1°W
Report Text: KBFF 260853Z AUTO 30013KT 10SM FEW026 OVC085 M01/M04 A3012 RMK AO2 SLP214 T10061039 53015 $
Loading
Personal Weather Stations






























Interactive Weather Map New forecast layout! Learn more

10-Day Weather Forecast

Advertisements
Track Severe Weather on mobile